createdAt,value
2018-06-12T00:00:56.979Z,100943.30
2018-06-12T00:03:25.526Z,100937.61
2018-06-12T00:05:54.059Z,100932.15
2018-06-12T00:08:22.367Z,100936.19
2018-06-12T00:10:50.880Z,100937.06
2018-06-12T00:13:19.519Z,100938.63
2018-06-12T00:15:48.068Z,100941.47
2018-06-12T00:18:16.740Z,100938.73
2018-06-12T00:20:45.416Z,100946.41
2018-06-12T00:23:13.990Z,100952.62
2018-06-12T00:25:42.421Z,100952.66
2018-06-12T00:28:10.846Z,100962.23
2018-06-12T00:30:39.408Z,100946.77
2018-06-12T00:33:08.165Z,100940.44
2018-06-12T00:35:36.790Z,100940.72
2018-06-12T00:38:05.400Z,100956.66
2018-06-12T00:40:33.913Z,100948.11
2018-06-12T00:43:02.319Z,100948.62
2018-06-12T00:45:30.541Z,100947.41
2018-06-12T00:47:59.333Z,100941.19
2018-06-12T00:50:27.778Z,100947.55
2018-06-12T00:52:56.241Z,100942.49
2018-06-12T00:55:24.692Z,100938.63
2018-06-12T00:57:53.087Z,100936.81
2018-06-12T01:00:21.566Z,100939.61
2018-06-12T01:02:50.201Z,100929.81
2018-06-12T01:05:18.822Z,100941.06
2018-06-12T01:07:47.355Z,100931.09
2018-06-12T01:10:15.820Z,100925.34
2018-06-12T01:12:44.118Z,100933.16
2018-06-12T01:15:12.445Z,100938.39
2018-06-12T01:17:41.017Z,100944.56
2018-06-12T01:20:09.472Z,100938.01
2018-06-12T01:22:38.077Z,100938.17
2018-06-12T01:25:06.425Z,100948.78
2018-06-12T01:27:34.936Z,100955.59
2018-06-12T01:30:03.363Z,100970.39
2018-06-12T01:32:31.741Z,100968.47
2018-06-12T01:35:00.273Z,100966.52
2018-06-12T01:37:28.944Z,100959.95
2018-06-12T01:39:57.645Z,100962.87
2018-06-12T01:42:26.161Z,100956.78
2018-06-12T01:44:54.561Z,100959.95
2018-06-12T01:47:23.112Z,100956.69
2018-06-12T01:49:51.512Z,100961.45
2018-06-12T01:52:20.192Z,100963.52
2018-06-12T01:54:48.552Z,100961.84
2018-06-12T01:57:16.949Z,100963.09
2018-06-12T01:59:45.683Z,100969.05
2018-06-12T02:02:14.084Z,100969.59
2018-06-12T02:04:42.872Z,100971.48
2018-06-12T02:07:11.388Z,100973.84
2018-06-12T02:09:39.932Z,100967.22
2018-06-12T02:12:08.660Z,100971.01
2018-06-12T02:14:37.476Z,100971.02
2018-06-12T02:17:05.883Z,100972.05
2018-06-12T02:19:34.452Z,100972.13
2018-06-12T02:22:03.046Z,100965.07
2018-06-12T02:24:31.584Z,100968.00
2018-06-12T02:26:59.993Z,100966.20
2018-06-12T02:29:28.541Z,100965.78
2018-06-12T02:31:56.988Z,100955.83
2018-06-12T02:34:25.675Z,100961.20
2018-06-12T02:36:54.153Z,100963.91
2018-06-12T02:39:22.735Z,100953.57
2018-06-12T02:41:51.290Z,100954.89
2018-06-12T02:44:19.854Z,100953.45
2018-06-12T02:46:48.535Z,100955.02
2018-06-12T02:49:17.148Z,100950.86
2018-06-12T02:51:45.650Z,100961.56
2018-06-12T02:54:14.097Z,100966.93
2018-06-12T02:56:42.747Z,100955.22
2018-06-12T02:59:11.326Z,100959.25
2018-06-12T03:01:39.657Z,100960.48
2018-06-12T03:04:08.027Z,100958.63
2018-06-12T03:06:36.398Z,100956.63
2018-06-12T03:09:08.534Z,100956.84
2018-06-12T03:11:37.073Z,100959.37
2018-06-12T03:14:05.560Z,100959.94
2018-06-12T03:16:34.216Z,100957.70
2018-06-12T03:19:02.625Z,100961.41
2018-06-12T03:21:31.295Z,100969.92
2018-06-12T03:23:59.529Z,100966.73
2018-06-12T03:26:27.952Z,100961.74
2018-06-12T03:28:56.610Z,100961.03
2018-06-12T03:31:24.965Z,100962.23
2018-06-12T03:33:53.557Z,100959.22
2018-06-12T03:36:22.097Z,100960.05
2018-06-12T03:38:50.708Z,100961.05
2018-06-12T03:41:19.310Z,100960.70
2018-06-12T03:43:47.823Z,100964.44
2018-06-12T03:46:16.180Z,100965.09
2018-06-12T03:48:44.593Z,100960.82
2018-06-12T03:51:12.885Z,100955.41
2018-06-12T03:53:41.155Z,100960.33
2018-06-12T03:56:09.713Z,100955.24
2018-06-12T03:58:38.253Z,100957.13
2018-06-12T04:01:06.744Z,100956.48
2018-06-12T04:03:35.385Z,100956.05
2018-06-12T04:06:03.887Z,100959.30
2018-06-12T04:08:32.261Z,100965.48
2018-06-12T04:11:00.792Z,100962.64
2018-06-12T04:13:29.401Z,100971.55
2018-06-12T04:15:57.980Z,100969.91
2018-06-12T04:18:26.335Z,100969.22
2018-06-12T04:20:55.127Z,100974.05
2018-06-12T04:23:23.565Z,100976.80
2018-06-12T04:25:52.028Z,100975.08
2018-06-12T04:28:20.508Z,100977.14
2018-06-12T04:30:48.952Z,100980.67
2018-06-12T04:33:17.755Z,100985.45
2018-06-12T04:35:46.130Z,100974.19
2018-06-12T04:38:14.715Z,100974.64
2018-06-12T04:40:43.672Z,100977.49
2018-06-12T04:43:12.180Z,100979.59
2018-06-12T04:45:40.561Z,100979.92
2018-06-12T04:48:09.089Z,100984.79
2018-06-12T04:50:37.699Z,100979.23
2018-06-12T04:53:06.398Z,100978.08
2018-06-12T04:55:35.211Z,100980.42
2018-06-12T04:58:03.932Z,100977.86
2018-06-12T05:00:32.285Z,100974.91
2018-06-12T05:03:00.679Z,100978.20
2018-06-12T05:05:29.284Z,100979.03
2018-06-12T05:07:57.673Z,100978.34
2018-06-12T05:10:26.488Z,100986.51
2018-06-12T05:12:55.246Z,100992.73
2018-06-12T05:15:23.762Z,101000.50
2018-06-12T05:17:52.423Z,100993.95
2018-06-12T05:20:20.905Z,101001.78
2018-06-12T05:22:49.403Z,100995.41
2018-06-12T05:25:17.856Z,101001.56
2018-06-12T05:27:46.585Z,101002.28
2018-06-12T05:30:15.116Z,101004.61
2018-06-12T05:32:43.723Z,101013.05
2018-06-12T05:35:12.351Z,101010.69
2018-06-12T05:37:40.961Z,101015.77
2018-06-12T05:40:09.481Z,101021.70
2018-06-12T05:42:38.348Z,101016.11
2018-06-12T05:45:08.466Z,101012.69
2018-06-12T05:47:37.077Z,101024.33
2018-06-12T05:50:05.539Z,101020.50
2018-06-12T05:52:33.926Z,101027.93
2018-06-12T05:55:02.931Z,101019.50
2018-06-12T05:57:31.273Z,101025.91
2018-06-12T06:00:00.029Z,101022.34
2018-06-12T06:02:28.482Z,101030.48
2018-06-12T06:04:57.326Z,101035.16
2018-06-12T06:07:25.565Z,101028.44
2018-06-12T06:09:53.936Z,101035.09
2018-06-12T06:12:23.402Z,101030.74
2018-06-12T06:14:51.958Z,101039.67
2018-06-12T06:17:20.409Z,101043.62
2018-06-12T06:19:48.781Z,101045.92
2018-06-12T06:22:17.508Z,101042.69
2018-06-12T06:24:45.913Z,101046.62
2018-06-12T06:27:14.402Z,101052.73
2018-06-12T06:29:43.316Z,101055.72
2018-06-12T06:32:11.741Z,101054.06
2018-06-12T06:34:40.431Z,101053.52
2018-06-12T06:37:08.881Z,101050.83
2018-06-12T06:39:37.406Z,101051.61
2018-06-12T06:42:05.784Z,101058.11
2018-06-12T06:44:34.080Z,101050.66
2018-06-12T06:47:03.313Z,101055.02
2018-06-12T06:49:31.892Z,101059.04
2018-06-12T06:52:00.695Z,101063.30
2018-06-12T06:54:29.257Z,101064.04
2018-06-12T06:56:57.652Z,101054.80
2018-06-12T06:59:26.136Z,101062.00
2018-06-12T07:01:54.543Z,101055.18
2018-06-12T07:04:23.149Z,101057.72
2018-06-12T07:06:51.550Z,101054.95
2018-06-12T07:09:19.936Z,101055.17
2018-06-12T07:11:48.431Z,101051.45
2018-06-12T07:14:16.818Z,101049.96
2018-06-12T07:16:45.575Z,101039.84
2018-06-12T07:19:14.131Z,101038.56
2018-06-12T07:21:42.505Z,101042.11
2018-06-12T07:24:11.183Z,101045.42
2018-06-12T07:26:39.824Z,101043.70
2018-06-12T07:29:08.224Z,101042.37
2018-06-12T07:31:36.962Z,101043.55
2018-06-12T07:34:05.373Z,101045.33
2018-06-12T07:36:33.888Z,101049.95
2018-06-12T07:39:02.784Z,101045.13
2018-06-12T07:41:31.223Z,101043.81
2018-06-12T07:44:01.042Z,101045.04
2018-06-12T07:46:29.536Z,101044.46
2018-06-12T07:48:58.538Z,101050.37
2018-06-12T07:51:27.551Z,101053.93
2018-06-12T07:53:56.939Z,101052.63
2018-06-12T07:56:25.392Z,101057.67
2018-06-12T07:58:54.241Z,101052.92
2018-06-12T08:01:22.977Z,101058.23
2018-06-12T08:03:51.462Z,101052.32
2018-06-12T08:06:19.987Z,101053.28
2018-06-12T08:08:48.434Z,101059.77
2018-06-12T08:11:16.813Z,101055.36
2018-06-12T08:13:45.399Z,101052.70
2018-06-12T08:16:14.146Z,101061.73
2018-06-12T08:18:42.589Z,101060.53
2018-06-12T08:21:11.082Z,101056.20
2018-06-12T08:23:39.512Z,101061.72
2018-06-12T08:26:08.006Z,101057.75
2018-06-12T08:28:36.553Z,101054.98
2018-06-12T08:31:05.171Z,101060.13
2018-06-12T08:33:33.533Z,101060.16
2018-06-12T08:36:02.265Z,101057.69
2018-06-12T08:38:30.704Z,101056.83
2018-06-12T08:40:59.500Z,101056.39
2018-06-12T08:43:27.884Z,101060.63
2018-06-12T08:45:56.602Z,101063.38
2018-06-12T08:48:25.094Z,101061.33
2018-06-12T08:50:53.796Z,101060.60
2018-06-12T08:53:22.312Z,101069.77
2018-06-12T08:55:50.887Z,101068.48
2018-06-12T08:58:19.393Z,101075.39
2018-06-12T09:00:47.956Z,101074.39
2018-06-12T09:03:17.439Z,101071.84
2018-06-12T09:05:46.214Z,101059.03
2018-06-12T09:08:14.734Z,101067.05
2018-06-12T09:10:43.587Z,101063.76
2018-06-12T09:13:12.385Z,101065.02
2018-06-12T09:15:41.502Z,101071.23
2018-06-12T09:18:09.892Z,101065.45
2018-06-12T09:20:39.358Z,101075.72
2018-06-12T09:23:07.685Z,101067.94
2018-06-12T09:25:36.225Z,101068.63
2018-06-12T09:28:04.645Z,101064.95
2018-06-12T09:30:33.321Z,101073.19
2018-06-12T09:33:01.828Z,101067.06
2018-06-12T09:35:30.457Z,101076.50
2018-06-12T09:37:59.021Z,101069.54
2018-06-12T09:40:27.554Z,101067.87
2018-06-12T09:42:56.139Z,101074.13
2018-06-12T09:45:24.658Z,101080.34
2018-06-12T09:47:53.333Z,101086.73
2018-06-12T09:50:22.166Z,101085.91
2018-06-12T09:52:50.551Z,101093.92
2018-06-12T09:55:19.349Z,101091.33
2018-06-12T09:57:47.867Z,101092.64
2018-06-12T10:00:21.088Z,101094.69
2018-06-12T10:02:50.423Z,101097.27
2018-06-12T10:05:19.378Z,101098.41
2018-06-12T10:07:49.655Z,101098.81
2018-06-12T10:10:17.843Z,101094.27
2018-06-12T10:12:46.478Z,101088.02
2018-06-12T10:15:14.951Z,101095.38
2018-06-12T10:17:44.278Z,101093.08
2018-06-12T10:20:12.724Z,101101.91
2018-06-12T10:22:41.312Z,101097.87
2018-06-12T10:25:09.894Z,101097.69
2018-06-12T10:27:38.626Z,101101.17
2018-06-12T10:30:07.120Z,101098.59
2018-06-12T10:32:35.604Z,101103.68
2018-06-12T10:35:04.147Z,101101.27
2018-06-12T10:37:32.367Z,101105.62
2018-06-12T10:40:00.993Z,101105.03
2018-06-12T10:42:29.531Z,101097.47
2018-06-12T10:44:58.157Z,101095.84
2018-06-12T10:47:26.843Z,101095.80
2018-06-12T10:49:55.371Z,101100.86
2018-06-12T10:52:23.783Z,101093.95
2018-06-12T10:54:52.435Z,101100.48
2018-06-12T10:57:20.910Z,101096.77
2018-06-12T10:59:49.589Z,101093.61
2018-06-12T11:02:18.322Z,101098.01
2018-06-12T11:04:46.744Z,101100.52
2018-06-12T11:07:15.203Z,101099.27
2018-06-12T11:09:43.718Z,101096.46
2018-06-12T11:12:12.533Z,101099.95
2018-06-12T11:14:41.666Z,101093.97
2018-06-12T11:17:10.102Z,101092.03
2018-06-12T11:19:38.617Z,101093.64
2018-06-12T11:22:07.101Z,101095.88
2018-06-12T11:24:35.595Z,101083.84
2018-06-12T11:27:04.187Z,101089.97
2018-06-12T11:29:32.797Z,101079.78
2018-06-12T11:32:01.361Z,101085.34
2018-06-12T11:34:30.204Z,101081.55
2018-06-12T11:36:58.694Z,101074.16
2018-06-12T11:39:27.132Z,101077.13
2018-06-12T11:41:55.666Z,101079.14
2018-06-12T11:44:24.252Z,101079.08
2018-06-12T11:46:52.869Z,101080.98
2018-06-12T11:49:21.440Z,101077.80
2018-06-12T11:51:50.132Z,101076.12
2018-06-12T11:54:18.856Z,101081.31
2018-06-12T11:56:47.393Z,101077.17
2018-06-12T11:59:15.998Z,101081.97
2018-06-12T12:01:44.593Z,101075.27
2018-06-12T12:04:12.847Z,101077.60
2018-06-12T12:06:41.560Z,101081.94
2018-06-12T12:09:09.982Z,101086.08
2018-06-12T12:11:38.943Z,101095.99
2018-06-12T12:14:07.247Z,101087.66
2018-06-12T12:16:35.669Z,101086.11
2018-06-12T12:19:04.484Z,101093.16
2018-06-12T12:21:33.185Z,101097.55
2018-06-12T12:24:01.551Z,101091.73
2018-06-12T12:26:30.241Z,101094.03
2018-06-12T12:28:58.598Z,101091.47
2018-06-12T12:31:27.445Z,101096.95
2018-06-12T12:33:56.329Z,101095.56
2018-06-12T12:36:24.882Z,101092.59
2018-06-12T12:38:53.501Z,101087.87
2018-06-12T12:41:23.180Z,101079.56
2018-06-12T12:43:51.451Z,101084.50
2018-06-12T12:46:19.823Z,101092.92
2018-06-12T12:48:48.165Z,101089.41
2018-06-12T12:51:16.820Z,101093.39
2018-06-12T12:53:45.536Z,101087.23
2018-06-12T12:56:14.049Z,101093.97
2018-06-12T12:58:42.748Z,101097.22
2018-06-12T13:01:11.509Z,101097.00
2018-06-12T13:03:40.016Z,101093.75
2018-06-12T13:06:08.683Z,101092.45
2018-06-12T13:08:37.256Z,101093.41
2018-06-12T13:11:06.052Z,101097.41
2018-06-12T13:13:34.960Z,101101.71
2018-06-12T13:16:03.623Z,101089.62
2018-06-12T13:18:32.181Z,101089.37
2018-06-12T13:21:00.909Z,101093.47
2018-06-12T13:23:29.708Z,101092.52
2018-06-12T13:25:58.599Z,101091.41
2018-06-12T13:28:27.263Z,101099.92
2018-06-12T13:30:55.973Z,101094.11
2018-06-12T13:33:24.657Z,101091.02
2018-06-12T13:35:53.283Z,101092.73
2018-06-12T13:38:21.882Z,101096.87
2018-06-12T13:40:50.578Z,101098.48
2018-06-12T13:43:19.617Z,101100.96
2018-06-12T13:45:47.908Z,101103.39
2018-06-12T13:48:16.525Z,101101.31
2018-06-12T13:50:45.309Z,101102.08
2018-06-12T13:53:13.878Z,101106.20
2018-06-12T13:55:42.563Z,101100.73
2018-06-12T13:58:11.043Z,101100.73
2018-06-12T14:00:39.628Z,101097.90
2018-06-12T14:03:08.086Z,101099.84
2018-06-12T14:05:36.790Z,101098.63
2018-06-12T14:08:05.182Z,101093.12
2018-06-12T14:10:33.776Z,101093.73
2018-06-12T14:13:02.236Z,101092.83
2018-06-12T14:15:30.960Z,101089.06
2018-06-12T14:17:59.460Z,101092.72
2018-06-12T14:20:28.194Z,101085.80
2018-06-12T14:22:56.820Z,101085.33
2018-06-12T14:25:26.542Z,101087.36
2018-06-12T14:27:55.029Z,101084.23
2018-06-12T14:30:23.799Z,101085.11
2018-06-12T14:32:52.456Z,101078.63
2018-06-12T14:35:21.025Z,101075.41
2018-06-12T14:37:49.552Z,101085.38
2018-06-12T14:40:18.032Z,101087.33
2018-06-12T14:42:46.871Z,101086.51
2018-06-12T14:45:15.514Z,101079.70
2018-06-12T14:47:44.121Z,101072.91
2018-06-12T14:50:13.137Z,101074.17
2018-06-12T14:52:41.416Z,101080.27
2018-06-12T14:55:09.997Z,101090.70
2018-06-12T14:57:38.281Z,101084.43
2018-06-12T15:00:07.026Z,101080.17
2018-06-12T15:02:35.687Z,101077.76
2018-06-12T15:05:04.345Z,101074.72
2018-06-12T15:07:33.172Z,101068.55
2018-06-12T15:10:01.657Z,101072.36
2018-06-12T15:12:30.446Z,101073.28
2018-06-12T15:14:59.170Z,101066.61
2018-06-12T15:17:27.505Z,101060.87
2018-06-12T15:19:56.236Z,101058.44
2018-06-12T15:22:24.570Z,101060.39
2018-06-12T15:24:53.396Z,101059.15
2018-06-12T15:27:22.368Z,101057.23
2018-06-12T15:29:51.074Z,101051.40
2018-06-12T15:32:19.753Z,101047.55
2018-06-12T15:34:48.411Z,101047.44
2018-06-12T15:37:17.157Z,101047.00
2018-06-12T15:39:45.588Z,101043.59
2018-06-12T15:42:14.130Z,101048.56
2018-06-12T15:44:42.645Z,101045.31
2018-06-12T15:47:11.882Z,101046.62
2018-06-12T15:49:40.343Z,101038.77
2018-06-12T15:52:08.783Z,101044.63
2018-06-12T15:54:37.529Z,101049.85
2018-06-12T15:57:06.166Z,101048.22
2018-06-12T15:59:34.578Z,101052.86
2018-06-12T16:02:03.091Z,101053.66
2018-06-12T16:04:31.772Z,101053.78
2018-06-12T16:07:00.280Z,101051.38
2018-06-12T16:09:28.878Z,101059.20
2018-06-12T16:11:57.501Z,101044.55
2018-06-12T16:14:26.142Z,101053.23
2018-06-12T16:16:54.927Z,101045.23
2018-06-12T16:19:23.613Z,101044.72
2018-06-12T16:21:52.564Z,101046.96
2018-06-12T16:24:21.296Z,101041.72
2018-06-12T16:26:50.514Z,101043.70
2018-06-12T16:29:19.025Z,101042.45
2018-06-12T16:31:47.482Z,101047.25
2018-06-12T16:34:16.189Z,101050.75
2018-06-12T16:36:45.116Z,101050.79
2018-06-12T16:39:13.419Z,101048.39
2018-06-12T16:41:42.132Z,101050.33
2018-06-12T16:44:11.245Z,101050.96
2018-06-12T16:46:39.930Z,101049.48
2018-06-12T16:49:08.646Z,101052.73
2018-06-12T16:51:36.941Z,101058.98
2018-06-12T16:54:05.849Z,101062.14
2018-06-12T16:56:34.351Z,101054.66
2018-06-12T16:59:02.909Z,101053.70
2018-06-12T17:01:31.465Z,101051.17
2018-06-12T17:03:59.807Z,101053.98
2018-06-12T17:06:28.385Z,101056.15
2018-06-12T17:08:57.188Z,101055.05
2018-06-12T17:11:25.784Z,101050.37
2018-06-12T17:13:54.260Z,101061.55
2018-06-12T17:16:23.032Z,101059.66
2018-06-12T17:18:51.794Z,101056.02
2018-06-12T17:21:20.656Z,101050.84
2018-06-12T17:23:49.257Z,101049.36
2018-06-12T17:26:17.832Z,101058.85
2018-06-12T17:28:46.570Z,101059.47
2018-06-12T17:31:15.164Z,101058.70
2018-06-12T17:33:43.933Z,101055.69
2018-06-12T17:36:12.345Z,101057.37
2018-06-12T17:38:40.828Z,101058.72
2018-06-12T17:41:09.397Z,101053.30
2018-06-12T17:43:38.108Z,101061.42
2018-06-12T17:46:06.483Z,101064.77
2018-06-12T17:48:35.030Z,101058.77
2018-06-12T17:51:03.740Z,101059.56
2018-06-12T17:53:32.653Z,101060.54
2018-06-12T17:56:00.966Z,101064.44
2018-06-12T17:58:29.662Z,101070.53
2018-06-12T18:00:58.223Z,101064.37
2018-06-12T18:03:26.886Z,101066.66
2018-06-12T18:05:55.284Z,101069.69
2018-06-12T18:08:24.137Z,101075.20
2018-06-12T18:10:52.529Z,101075.55
2018-06-12T18:13:21.531Z,101069.61
2018-06-12T18:15:50.120Z,101073.73
2018-06-12T18:18:18.564Z,101068.40
2018-06-12T18:20:47.617Z,101074.13
2018-06-12T18:23:16.379Z,101070.35
2018-06-12T18:25:44.861Z,101070.10
2018-06-12T18:28:13.483Z,101069.39
2018-06-12T18:30:42.737Z,101080.27
2018-06-12T18:33:11.153Z,101070.56
2018-06-12T18:35:39.837Z,101081.09
2018-06-12T18:38:08.456Z,101083.57
2018-06-12T18:40:36.999Z,101081.09
2018-06-12T18:43:05.601Z,101088.67
2018-06-12T18:45:34.316Z,101083.76
2018-06-12T18:48:03.079Z,101087.69
2018-06-12T18:50:31.740Z,101086.73
2018-06-12T18:53:00.442Z,101083.83
2018-06-12T18:55:29.196Z,101090.40
2018-06-12T18:57:57.789Z,101103.44
2018-06-12T19:00:26.583Z,101100.05
2018-06-12T19:02:55.536Z,101087.63
2018-06-12T19:05:24.220Z,101099.47
2018-06-12T19:07:52.983Z,101099.69
2018-06-12T19:10:21.513Z,101099.91
2018-06-12T19:12:50.466Z,101106.59
2018-06-12T19:15:19.212Z,101113.19
2018-06-12T19:17:47.884Z,101116.00
2018-06-12T19:20:16.646Z,101116.90
2018-06-12T19:22:45.472Z,101123.33
2018-06-12T19:25:14.031Z,101125.77
2018-06-12T19:27:43.622Z,101121.97
2018-06-12T19:30:12.091Z,101125.16
2018-06-12T19:32:40.559Z,101130.13
2018-06-12T19:35:09.088Z,101124.13
2018-06-12T19:37:37.592Z,101130.78
2018-06-12T19:40:06.082Z,101134.50
2018-06-12T19:42:34.387Z,101135.63
2018-06-12T19:45:03.089Z,101133.15
2018-06-12T19:47:31.658Z,101140.62
2018-06-12T19:50:00.287Z,101145.59
2018-06-12T19:52:29.165Z,101153.19
2018-06-12T19:54:57.732Z,101159.18
2018-06-12T19:57:26.359Z,101171.38
2018-06-12T19:59:55.111Z,101170.51
2018-06-12T20:02:23.663Z,101182.91
2018-06-12T20:04:52.365Z,101188.44
2018-06-12T20:07:20.916Z,101190.38
2018-06-12T20:09:49.571Z,101194.48
2018-06-12T20:12:18.188Z,101200.02
2018-06-12T20:14:47.000Z,101193.69
2018-06-12T20:17:15.788Z,101200.98
2018-06-12T20:19:44.289Z,101198.78
2018-06-12T20:22:13.206Z,101200.02
2018-06-12T20:24:41.948Z,101205.02
2018-06-12T20:27:10.757Z,101206.34
2018-06-12T20:29:39.122Z,101208.47
2018-06-12T20:32:07.610Z,101210.94
2018-06-12T20:34:36.085Z,101211.10
2018-06-12T20:37:05.073Z,101213.31
2018-06-12T20:39:33.973Z,101217.14
2018-06-12T20:42:02.417Z,101216.98
2018-06-12T20:44:30.919Z,101220.69
2018-06-12T20:46:59.932Z,101212.99
2018-06-12T20:49:28.532Z,101212.67
2018-06-12T20:51:57.124Z,101211.12
2018-06-12T20:54:25.805Z,101205.58
2018-06-12T20:56:54.263Z,101209.27
2018-06-12T20:59:22.664Z,101205.81
2018-06-12T21:01:51.348Z,101206.29
2018-06-12T21:04:19.859Z,101207.61
2018-06-12T21:06:48.448Z,101210.15
2018-06-12T21:09:17.016Z,101207.45
2018-06-12T21:11:45.876Z,101217.49
2018-06-12T21:14:14.483Z,101210.08
2018-06-12T21:16:42.984Z,101211.42
2018-06-12T21:19:11.786Z,101213.63
2018-06-12T21:21:40.179Z,101207.68
2018-06-12T21:24:08.524Z,101213.58
2018-06-12T21:26:37.080Z,101211.55
2018-06-12T21:29:05.564Z,101209.90
2018-06-12T21:31:34.131Z,101207.03
2018-06-12T21:34:02.709Z,101200.69
2018-06-12T21:36:31.171Z,101207.31
2018-06-12T21:38:59.773Z,101208.80
2018-06-12T21:41:28.276Z,101207.86
2018-06-12T21:43:56.864Z,101209.97
2018-06-12T21:46:25.404Z,101210.56
2018-06-12T21:48:53.983Z,101195.38
2018-06-12T21:51:22.608Z,101207.29
2018-06-12T21:53:51.095Z,101209.00
2018-06-12T21:56:19.696Z,101215.26
2018-06-12T21:58:48.441Z,101215.05
2018-06-12T22:01:17.448Z,101218.17
2018-06-12T22:03:45.945Z,101215.28
2018-06-12T22:06:14.553Z,101216.94
2018-06-12T22:08:43.020Z,101210.20
2018-06-12T22:11:11.729Z,101211.06
2018-06-12T22:13:40.163Z,101211.79
2018-06-12T22:16:08.581Z,101212.17
2018-06-12T22:18:37.455Z,101213.91
2018-06-12T22:21:05.922Z,101211.69
2018-06-12T22:23:35.033Z,101212.91
2018-06-12T22:26:03.548Z,101213.11
2018-06-12T22:28:32.185Z,101212.53
2018-06-12T22:31:00.711Z,101210.20
2018-06-12T22:33:29.230Z,101208.67
2018-06-12T22:35:57.652Z,101206.07
2018-06-12T22:38:26.612Z,101212.44
2018-06-12T22:40:55.032Z,101211.92
2018-06-12T22:43:23.718Z,101220.66
2018-06-12T22:45:52.371Z,101217.95
2018-06-12T22:48:20.933Z,101226.01
2018-06-12T22:50:49.328Z,101224.41
2018-06-12T22:53:18.016Z,101224.27
2018-06-12T22:55:46.560Z,101227.02
2018-06-12T22:58:14.965Z,101233.91
2018-06-12T23:00:43.893Z,101232.39
2018-06-12T23:03:12.286Z,101233.94
2018-06-12T23:05:41.201Z,101231.56
2018-06-12T23:08:09.705Z,101227.35
2018-06-12T23:10:38.092Z,101219.65
2018-06-12T23:13:06.704Z,101230.09
2018-06-12T23:15:35.397Z,101233.31
2018-06-12T23:18:03.853Z,101234.79
2018-06-12T23:21:57.068Z,101234.58
2018-06-12T23:24:25.905Z,101232.34
2018-06-12T23:26:54.718Z,101232.59
2018-06-12T23:29:23.170Z,101236.19
2018-06-12T23:31:51.669Z,101230.14
2018-06-12T23:34:20.494Z,101228.70
2018-06-12T23:36:49.280Z,101239.13
2018-06-12T23:39:17.932Z,101231.38
2018-06-12T23:41:46.836Z,101234.19
2018-06-12T23:44:15.285Z,101236.67
2018-06-12T23:46:50.440Z,101229.05
2018-06-12T23:49:18.941Z,101230.75
2018-06-12T23:51:47.538Z,101232.09
2018-06-12T23:54:16.116Z,101233.02
2018-06-12T23:56:44.621Z,101227.84
2018-06-12T23:59:13.099Z,101230.88
